sensor_id;sensor_type;location;lat;lon;timestamp;temperature;humidity
5276;DHT22;2661;50.786;12.728;2024-02-28T00:00:40;4.60;99.90
5276;DHT22;2661;50.786;12.728;2024-02-28T00:03:07;4.70;99.90
5276;DHT22;2661;50.786;12.728;2024-02-28T00:05:33;4.70;99.90
5276;DHT22;2661;50.786;12.728;2024-02-28T00:08:00;4.70;99.90
5276;DHT22;2661;50.786;12.728;2024-02-28T00:10:27;4.70;99.90
5276;DHT22;2661;50.786;12.728;2024-02-28T00:12:53;4.80;99.90
5276;DHT22;2661;50.786;12.728;2024-02-28T00:15:20;4.70;99.90
5276;DHT22;2661;50.786;12.728;2024-02-28T00:17:47;4.80;34.70
5276;DHT22;2661;50.786;12.728;2024-02-28T00:20:13;4.80;5.20
5276;DHT22;2661;50.786;12.728;2024-02-28T00:22:40;4.80;99.90
5276;DHT22;2661;50.786;12.728;2024-02-28T00:25:08;4.80;99.90
5276;DHT22;2661;50.786;12.728;2024-02-28T00:27:37;4.80;99.90
5276;DHT22;2661;50.786;12.728;2024-02-28T00:30:04;4.80;55.00
5276;DHT22;2661;50.786;12.728;2024-02-28T00:32:33;4.80;67.30
5276;DHT22;2661;50.786;12.728;2024-02-28T00:34:59;4.80;1.00
5276;DHT22;2661;50.786;12.728;2024-02-28T00:37:26;4.80;1.00
5276;DHT22;2661;50.786;12.728;2024-02-28T00:39:53;4.80;33.80
5276;DHT22;2661;50.786;12.728;2024-02-28T00:42:19;4.80;1.00
5276;DHT22;2661;50.786;12.728;2024-02-28T00:44:46;4.80;1.00
5276;DHT22;2661;50.786;12.728;2024-02-28T00:47:13;4.80;99.90
5276;DHT22;2661;50.786;12.728;2024-02-28T00:49:39;4.80;10.80
5276;DHT22;2661;50.786;12.728;2024-02-28T00:52:06;4.80;1.00
5276;DHT22;2661;50.786;12.728;2024-02-28T00:54:32;4.80;1.00
5276;DHT22;2661;50.786;12.728;2024-02-28T00:56:59;4.80;99.90
5276;DHT22;2661;50.786;12.728;2024-02-28T00:59:26;4.90;99.90
5276;DHT22;2661;50.786;12.728;2024-02-28T01:01:53;4.80;18.60
5276;DHT22;2661;50.786;12.728;2024-02-28T01:04:19;4.80;1.00
5276;DHT22;2661;50.786;12.728;2024-02-28T01:06:46;4.90;30.50
5276;DHT22;2661;50.786;12.728;2024-02-28T01:09:13;4.90;1.00
5276;DHT22;2661;50.786;12.728;2024-02-28T01:11:39;4.90;1.00
5276;DHT22;2661;50.786;12.728;2024-02-28T01:14:06;4.90;1.00
5276;DHT22;2661;50.786;12.728;2024-02-28T01:16:32;4.90;1.00
5276;DHT22;2661;50.786;12.728;2024-02-28T01:18:59;4.90;2.30
5276;DHT22;2661;50.786;12.728;2024-02-28T01:21:26;4.90;1.00
5276;DHT22;2661;50.786;12.728;2024-02-28T01:23:53;5.00;12.80
5276;DHT22;2661;50.786;12.728;2024-02-28T01:26:19;5.00;1.00
5276;DHT22;2661;50.786;12.728;2024-02-28T01:28:48;5.00;99.90
5276;DHT22;2661;50.786;12.728;2024-02-28T01:31:15;5.00;1.00
5276;DHT22;2661;50.786;12.728;2024-02-28T01:33:41;4.90;91.60
5276;DHT22;2661;50.786;12.728;2024-02-28T01:36:08;4.90;99.90
5276;DHT22;2661;50.786;12.728;2024-02-28T01:38:35;4.90;99.90
5276;DHT22;2661;50.786;12.728;2024-02-28T01:41:01;4.90;99.90
5276;DHT22;2661;50.786;12.728;2024-02-28T01:43:28;4.90;1.00
5276;DHT22;2661;50.786;12.728;2024-02-28T01:45:55;4.90;1.00
5276;DHT22;2661;50.786;12.728;2024-02-28T01:48:21;5.00;1.00
5276;DHT22;2661;50.786;12.728;2024-02-28T01:50:48;4.90;1.00
5276;DHT22;2661;50.786;12.728;2024-02-28T01:53:15;5.00;1.00
5276;DHT22;2661;50.786;12.728;2024-02-28T01:55:45;5.00;1.00
5276;DHT22;2661;50.786;12.728;2024-02-28T01:58:12;5.00;1.00
5276;DHT22;2661;50.786;12.728;2024-02-28T02:00:38;5.00;99.90
5276;DHT22;2661;50.786;12.728;2024-02-28T02:03:06;5.00;99.90
5276;DHT22;2661;50.786;12.728;2024-02-28T02:05:32;5.00;99.90
5276;DHT22;2661;50.786;12.728;2024-02-28T02:07:59;5.00;99.90
5276;DHT22;2661;50.786;12.728;2024-02-28T02:10:26;5.00;49.10
5276;DHT22;2661;50.786;12.728;2024-02-28T02:12:53;5.00;99.90
5276;DHT22;2661;50.786;12.728;2024-02-28T02:15:19;5.00;1.00
5276;DHT22;2661;50.786;12.728;2024-02-28T02:17:46;4.90;1.00
5276;DHT22;2661;50.786;12.728;2024-02-28T02:20:14;4.90;1.00
5276;DHT22;2661;50.786;12.728;2024-02-28T02:22:41;5.00;1.00
5276;DHT22;2661;50.786;12.728;2024-02-28T02:25:08;4.90;1.00
5276;DHT22;2661;50.786;12.728;2024-02-28T02:27:34;4.90;1.00
5276;DHT22;2661;50.786;12.728;2024-02-28T02:32:53;4.80;1.00
5276;DHT22;2661;50.786;12.728;2024-02-28T02:35:19;4.70;1.00
5276;DHT22;2661;50.786;12.728;2024-02-28T02:37:46;4.70;11.30
5276;DHT22;2661;50.786;12.728;2024-02-28T02:40:14;4.60;99.90
5276;DHT22;2661;50.786;12.728;2024-02-28T02:42:41;4.60;99.90
5276;DHT22;2661;50.786;12.728;2024-02-28T02:45:07;4.60;99.90
5276;DHT22;2661;50.786;12.728;2024-02-28T02:47:34;4.60;99.90
5276;DHT22;2661;50.786;12.728;2024-02-28T02:50:01;4.60;99.90
5276;DHT22;2661;50.786;12.728;2024-02-28T02:52:28;4.60;1.00
5276;DHT22;2661;50.786;12.728;2024-02-28T02:54:55;4.50;1.00
5276;DHT22;2661;50.786;12.728;2024-02-28T02:57:21;4.50;1.00
5276;DHT22;2661;50.786;12.728;2024-02-28T02:59:48;4.50;1.00
5276;DHT22;2661;50.786;12.728;2024-02-28T03:02:14;4.50;1.00
5276;DHT22;2661;50.786;12.728;2024-02-28T03:04:41;4.50;1.00
5276;DHT22;2661;50.786;12.728;2024-02-28T03:07:08;4.60;1.00
5276;DHT22;2661;50.786;12.728;2024-02-28T03:09:34;4.60;1.00
5276;DHT22;2661;50.786;12.728;2024-02-28T03:12:01;4.60;1.00
5276;DHT22;2661;50.786;12.728;2024-02-28T03:14:28;4.60;1.00
5276;DHT22;2661;50.786;12.728;2024-02-28T03:16:54;4.60;1.00
5276;DHT22;2661;50.786;12.728;2024-02-28T03:19:21;4.60;1.00
5276;DHT22;2661;50.786;12.728;2024-02-28T03:21:50;4.70;1.00
5276;DHT22;2661;50.786;12.728;2024-02-28T03:24:17;4.70;1.00
5276;DHT22;2661;50.786;12.728;2024-02-28T03:26:43;4.60;1.00
5276;DHT22;2661;50.786;12.728;2024-02-28T03:29:10;4.50;1.00
5276;DHT22;2661;50.786;12.728;2024-02-28T03:31:37;4.50;1.00
5276;DHT22;2661;50.786;12.728;2024-02-28T03:34:04;4.50;1.00
5276;DHT22;2661;50.786;12.728;2024-02-28T03:36:30;4.50;1.00
5276;DHT22;2661;50.786;12.728;2024-02-28T03:38:57;4.50;1.00
5276;DHT22;2661;50.786;12.728;2024-02-28T03:41:23;4.50;1.00
5276;DHT22;2661;50.786;12.728;2024-02-28T03:43:50;4.50;1.00
5276;DHT22;2661;50.786;12.728;2024-02-28T03:46:17;4.50;1.00
5276;DHT22;2661;50.786;12.728;2024-02-28T03:48:44;4.50;1.00
5276;DHT22;2661;50.786;12.728;2024-02-28T03:51:11;4.50;1.00
5276;DHT22;2661;50.786;12.728;2024-02-28T03:53:37;4.60;8.00
5276;DHT22;2661;50.786;12.728;2024-02-28T03:56:04;4.60;1.00
5276;DHT22;2661;50.786;12.728;2024-02-28T03:58:30;4.60;1.00
5276;DHT22;2661;50.786;12.728;2024-02-28T04:00:57;4.60;1.00
5276;DHT22;2661;50.786;12.728;2024-02-28T04:03:24;4.60;1.00
5276;DHT22;2661;50.786;12.728;2024-02-28T04:05:50;4.60;1.00
5276;DHT22;2661;50.786;12.728;2024-02-28T04:08:17;4.50;1.00
5276;DHT22;2661;50.786;12.728;2024-02-28T04:10:43;4.50;1.00
5276;DHT22;2661;50.786;12.728;2024-02-28T04:13:10;4.50;1.00
5276;DHT22;2661;50.786;12.728;2024-02-28T04:15:37;4.50;1.00
5276;DHT22;2661;50.786;12.728;2024-02-28T04:18:04;4.50;1.00
5276;DHT22;2661;50.786;12.728;2024-02-28T04:20:31;4.40;1.00
5276;DHT22;2661;50.786;12.728;2024-02-28T04:22:58;4.50;1.00
5276;DHT22;2661;50.786;12.728;2024-02-28T04:25:24;4.50;1.00
5276;DHT22;2661;50.786;12.728;2024-02-28T04:27:51;4.50;1.00
5276;DHT22;2661;50.786;12.728;2024-02-28T04:30:17;4.50;1.00
5276;DHT22;2661;50.786;12.728;2024-02-28T04:32:45;4.50;1.00
5276;DHT22;2661;50.786;12.728;2024-02-28T04:35:11;4.50;1.00
5276;DHT22;2661;50.786;12.728;2024-02-28T04:37:38;4.40;1.00
5276;DHT22;2661;50.786;12.728;2024-02-28T04:40:05;4.40;1.00
5276;DHT22;2661;50.786;12.728;2024-02-28T04:42:33;4.40;1.00
5276;DHT22;2661;50.786;12.728;2024-02-28T04:45:00;4.40;1.00
5276;DHT22;2661;50.786;12.728;2024-02-28T04:47:26;4.40;1.00
5276;DHT22;2661;50.786;12.728;2024-02-28T04:50:05;4.40;1.00
5276;DHT22;2661;50.786;12.728;2024-02-28T04:52:32;4.40;1.00
5276;DHT22;2661;50.786;12.728;2024-02-28T04:54:59;4.30;1.00
5276;DHT22;2661;50.786;12.728;2024-02-28T04:57:26;4.40;1.00
5276;DHT22;2661;50.786;12.728;2024-02-28T04:59:53;4.40;1.00
5276;DHT22;2661;50.786;12.728;2024-02-28T05:02:19;4.40;1.00
5276;DHT22;2661;50.786;12.728;2024-02-28T05:04:48;4.40;1.00
5276;DHT22;2661;50.786;12.728;2024-02-28T05:07:15;4.40;1.00
5276;DHT22;2661;50.786;12.728;2024-02-28T05:09:42;4.30;1.00
5276;DHT22;2661;50.786;12.728;2024-02-28T05:12:09;4.30;1.00
5276;DHT22;2661;50.786;12.728;2024-02-28T05:14:35;4.40;1.00
5276;DHT22;2661;50.786;12.728;2024-02-28T05:17:02;4.30;1.00
5276;DHT22;2661;50.786;12.728;2024-02-28T05:19:29;4.30;1.00
5276;DHT22;2661;50.786;12.728;2024-02-28T05:21:55;4.30;1.00
5276;DHT22;2661;50.786;12.728;2024-02-28T05:24:22;4.30;1.00
5276;DHT22;2661;50.786;12.728;2024-02-28T05:26:49;4.30;1.00
5276;DHT22;2661;50.786;12.728;2024-02-28T05:29:15;4.30;1.00
5276;DHT22;2661;50.786;12.728;2024-02-28T05:31:42;4.30;1.00
5276;DHT22;2661;50.786;12.728;2024-02-28T05:34:08;4.30;1.00
5276;DHT22;2661;50.786;12.728;2024-02-28T05:36:35;4.30;1.00
5276;DHT22;2661;50.786;12.728;2024-02-28T05:39:02;4.30;1.00
5276;DHT22;2661;50.786;12.728;2024-02-28T05:41:31;4.30;1.00
5276;DHT22;2661;50.786;12.728;2024-02-28T05:43:58;4.40;1.00
5276;DHT22;2661;50.786;12.728;2024-02-28T05:46:33;4.40;1.00
5276;DHT22;2661;50.786;12.728;2024-02-28T05:49:00;4.40;1.00
5276;DHT22;2661;50.786;12.728;2024-02-28T05:51:27;4.40;1.00
5276;DHT22;2661;50.786;12.728;2024-02-28T05:53:53;4.40;99.90
5276;DHT22;2661;50.786;12.728;2024-02-28T05:56:20;4.40;99.90
5276;DHT22;2661;50.786;12.728;2024-02-28T05:58:48;4.40;99.90
5276;DHT22;2661;50.786;12.728;2024-02-28T06:01:15;4.40;1.00
5276;DHT22;2661;50.786;12.728;2024-02-28T06:03:42;4.40;99.90
5276;DHT22;2661;50.786;12.728;2024-02-28T06:06:08;4.40;1.00
5276;DHT22;2661;50.786;12.728;2024-02-28T06:08:37;4.30;99.90
5276;DHT22;2661;50.786;12.728;2024-02-28T06:11:04;4.30;99.90
5276;DHT22;2661;50.786;12.728;2024-02-28T06:13:31;4.30;99.90
5276;DHT22;2661;50.786;12.728;2024-02-28T06:15:58;4.30;99.90
5276;DHT22;2661;50.786;12.728;2024-02-28T06:18:25;4.20;99.90
5276;DHT22;2661;50.786;12.728;2024-02-28T06:20:55;4.20;99.90
5276;DHT22;2661;50.786;12.728;2024-02-28T06:23:22;4.20;1.00
5276;DHT22;2661;50.786;12.728;2024-02-28T06:25:55;4.30;99.90
5276;DHT22;2661;50.786;12.728;2024-02-28T06:28:22;4.30;99.90
5276;DHT22;2661;50.786;12.728;2024-02-28T06:30:48;4.20;99.90
5276;DHT22;2661;50.786;12.728;2024-02-28T06:33:15;4.20;99.90
5276;DHT22;2661;50.786;12.728;2024-02-28T06:35:42;4.20;1.00
5276;DHT22;2661;50.786;12.728;2024-02-28T06:38:09;4.20;1.00
5276;DHT22;2661;50.786;12.728;2024-02-28T06:40:35;4.20;1.00
5276;DHT22;2661;50.786;12.728;2024-02-28T06:43:02;4.20;1.00
5276;DHT22;2661;50.786;12.728;2024-02-28T06:45:29;4.30;1.00
5276;DHT22;2661;50.786;12.728;2024-02-28T06:47:56;4.30;1.00
5276;DHT22;2661;50.786;12.728;2024-02-28T06:50:23;4.30;1.00
5276;DHT22;2661;50.786;12.728;2024-02-28T06:52:49;4.30;1.00
5276;DHT22;2661;50.786;12.728;2024-02-28T06:55:16;4.30;1.00
5276;DHT22;2661;50.786;12.728;2024-02-28T06:57:43;4.30;1.00
5276;DHT22;2661;50.786;12.728;2024-02-28T07:00:10;4.30;1.00
5276;DHT22;2661;50.786;12.728;2024-02-28T07:02:41;4.30;1.00
5276;DHT22;2661;50.786;12.728;2024-02-28T07:05:08;4.30;1.00
5276;DHT22;2661;50.786;12.728;2024-02-28T07:07:34;4.30;1.00
5276;DHT22;2661;50.786;12.728;2024-02-28T07:10:04;4.30;1.00
5276;DHT22;2661;50.786;12.728;2024-02-28T07:12:31;4.40;1.00
5276;DHT22;2661;50.786;12.728;2024-02-28T07:14:58;4.40;1.00
5276;DHT22;2661;50.786;12.728;2024-02-28T07:17:25;4.30;1.00
5276;DHT22;2661;50.786;12.728;2024-02-28T07:19:51;4.40;1.00
5276;DHT22;2661;50.786;12.728;2024-02-28T07:22:18;4.40;1.00
5276;DHT22;2661;50.786;12.728;2024-02-28T07:24:45;4.40;1.00
5276;DHT22;2661;50.786;12.728;2024-02-28T07:27:11;4.40;1.00
5276;DHT22;2661;50.786;12.728;2024-02-28T07:29:38;4.40;1.00
5276;DHT22;2661;50.786;12.728;2024-02-28T07:32:05;4.40;1.00
5276;DHT22;2661;50.786;12.728;2024-02-28T07:34:31;4.40;1.00
5276;DHT22;2661;50.786;12.728;2024-02-28T07:36:58;4.40;1.00
5276;DHT22;2661;50.786;12.728;2024-02-28T07:39:25;4.40;1.00
5276;DHT22;2661;50.786;12.728;2024-02-28T07:41:51;4.40;1.00
5276;DHT22;2661;50.786;12.728;2024-02-28T07:44:22;4.30;1.00
5276;DHT22;2661;50.786;12.728;2024-02-28T07:46:48;4.30;1.00
5276;DHT22;2661;50.786;12.728;2024-02-28T07:49:17;4.30;1.00
5276;DHT22;2661;50.786;12.728;2024-02-28T07:51:44;4.40;1.00
5276;DHT22;2661;50.786;12.728;2024-02-28T07:54:11;4.30;1.00
5276;DHT22;2661;50.786;12.728;2024-02-28T07:56:38;4.30;1.00
5276;DHT22;2661;50.786;12.728;2024-02-28T07:59:04;4.20;1.00
5276;DHT22;2661;50.786;12.728;2024-02-28T08:01:31;4.20;1.00
5276;DHT22;2661;50.786;12.728;2024-02-28T08:03:58;4.10;1.00
5276;DHT22;2661;50.786;12.728;2024-02-28T08:06:26;4.10;1.00
5276;DHT22;2661;50.786;12.728;2024-02-28T08:08:52;4.10;1.00
5276;DHT22;2661;50.786;12.728;2024-02-28T08:11:19;4.10;1.00
5276;DHT22;2661;50.786;12.728;2024-02-28T08:13:46;4.10;1.00
5276;DHT22;2661;50.786;12.728;2024-02-28T08:16:13;4.10;1.00
5276;DHT22;2661;50.786;12.728;2024-02-28T08:18:39;4.10;1.00
5276;DHT22;2661;50.786;12.728;2024-02-28T08:21:06;4.10;1.00
5276;DHT22;2661;50.786;12.728;2024-02-28T08:23:33;4.00;1.00
5276;DHT22;2661;50.786;12.728;2024-02-28T08:25:59;4.00;1.00
5276;DHT22;2661;50.786;12.728;2024-02-28T08:28:26;4.10;1.00
5276;DHT22;2661;50.786;12.728;2024-02-28T08:30:53;4.00;1.00
5276;DHT22;2661;50.786;12.728;2024-02-28T08:33:20;4.10;1.00
5276;DHT22;2661;50.786;12.728;2024-02-28T08:35:50;4.00;1.00
5276;DHT22;2661;50.786;12.728;2024-02-28T08:38:18;4.10;99.90
5276;DHT22;2661;50.786;12.728;2024-02-28T08:40:45;4.10;99.90
5276;DHT22;2661;50.786;12.728;2024-02-28T08:43:12;4.10;1.00
5276;DHT22;2661;50.786;12.728;2024-02-28T08:45:39;4.10;1.00
5276;DHT22;2661;50.786;12.728;2024-02-28T08:48:06;4.10;99.90
5276;DHT22;2661;50.786;12.728;2024-02-28T08:50:33;4.20;99.90
5276;DHT22;2661;50.786;12.728;2024-02-28T08:53:00;4.20;99.90
5276;DHT22;2661;50.786;12.728;2024-02-28T08:55:27;4.30;99.90
5276;DHT22;2661;50.786;12.728;2024-02-28T08:57:55;4.20;99.90
5276;DHT22;2661;50.786;12.728;2024-02-28T09:00:22;4.30;1.00
5276;DHT22;2661;50.786;12.728;2024-02-28T09:02:49;4.30;1.00
5276;DHT22;2661;50.786;12.728;2024-02-28T09:05:15;4.30;1.00
5276;DHT22;2661;50.786;12.728;2024-02-28T09:07:42;4.30;99.90
5276;DHT22;2661;50.786;12.728;2024-02-28T09:10:09;4.30;99.90
5276;DHT22;2661;50.786;12.728;2024-02-28T09:12:37;4.30;1.00
5276;DHT22;2661;50.786;12.728;2024-02-28T09:15:04;4.30;1.00
5276;DHT22;2661;50.786;12.728;2024-02-28T09:17:31;4.30;1.00
5276;DHT22;2661;50.786;12.728;2024-02-28T09:19:58;4.30;1.00
5276;DHT22;2661;50.786;12.728;2024-02-28T09:22:27;4.30;99.90
5276;DHT22;2661;50.786;12.728;2024-02-28T09:24:54;4.30;99.90
5276;DHT22;2661;50.786;12.728;2024-02-28T09:27:20;4.40;99.90
5276;DHT22;2661;50.786;12.728;2024-02-28T09:29:47;4.30;1.00
5276;DHT22;2661;50.786;12.728;2024-02-28T09:32:14;4.30;99.90
5276;DHT22;2661;50.786;12.728;2024-02-28T09:34:41;4.30;1.00
5276;DHT22;2661;50.786;12.728;2024-02-28T09:37:07;4.30;1.00
5276;DHT22;2661;50.786;12.728;2024-02-28T09:39:34;4.30;1.00
5276;DHT22;2661;50.786;12.728;2024-02-28T09:42:01;4.30;95.60
5276;DHT22;2661;50.786;12.728;2024-02-28T09:44:27;4.40;99.90
5276;DHT22;2661;50.786;12.728;2024-02-28T09:46:55;4.60;52.50
5276;DHT22;2661;50.786;12.728;2024-02-28T09:49:21;4.60;99.90
5276;DHT22;2661;50.786;12.728;2024-02-28T09:51:48;4.70;99.90
5276;DHT22;2661;50.786;12.728;2024-02-28T09:54:16;4.80;99.90
5276;DHT22;2661;50.786;12.728;2024-02-28T09:56:42;4.80;1.00
5276;DHT22;2661;50.786;12.728;2024-02-28T09:59:10;4.80;99.90
5276;DHT22;2661;50.786;12.728;2024-02-28T10:01:37;4.80;56.20
5276;DHT22;2661;50.786;12.728;2024-02-28T10:04:07;4.90;99.90
5276;DHT22;2661;50.786;12.728;2024-02-28T10:06:37;4.90;99.90
5276;DHT22;2661;50.786;12.728;2024-02-28T10:09:04;4.90;48.80
5276;DHT22;2661;50.786;12.728;2024-02-28T10:11:31;5.10;99.90
5276;DHT22;2661;50.786;12.728;2024-02-28T10:13:59;5.10;1.00
5276;DHT22;2661;50.786;12.728;2024-02-28T10:16:27;5.20;1.00
5276;DHT22;2661;50.786;12.728;2024-02-28T10:18:54;5.30;1.00
5276;DHT22;2661;50.786;12.728;2024-02-28T10:21:21;5.30;1.00
5276;DHT22;2661;50.786;12.728;2024-02-28T10:23:49;5.30;1.00
5276;DHT22;2661;50.786;12.728;2024-02-28T10:26:15;5.30;1.00
5276;DHT22;2661;50.786;12.728;2024-02-28T10:28:42;5.20;1.00
5276;DHT22;2661;50.786;12.728;2024-02-28T10:31:10;5.20;1.00
5276;DHT22;2661;50.786;12.728;2024-02-28T10:33:37;5.20;1.00
5276;DHT22;2661;50.786;12.728;2024-02-28T10:36:04;5.10;1.00
5276;DHT22;2661;50.786;12.728;2024-02-28T10:38:31;5.10;1.00
5276;DHT22;2661;50.786;12.728;2024-02-28T10:41:02;5.10;99.90
5276;DHT22;2661;50.786;12.728;2024-02-28T10:43:29;5.10;99.90
5276;DHT22;2661;50.786;12.728;2024-02-28T10:46:01;5.10;99.90
5276;DHT22;2661;50.786;12.728;2024-02-28T10:48:30;5.10;99.90
5276;DHT22;2661;50.786;12.728;2024-02-28T10:50:57;5.10;99.90
5276;DHT22;2661;50.786;12.728;2024-02-28T10:53:32;5.10;99.90
5276;DHT22;2661;50.786;12.728;2024-02-28T10:56:00;5.10;99.90
5276;DHT22;2661;50.786;12.728;2024-02-28T10:58:29;5.30;99.90
5276;DHT22;2661;50.786;12.728;2024-02-28T11:00:58;5.40;99.90
5276;DHT22;2661;50.786;12.728;2024-02-28T11:03:24;5.50;99.90
5276;DHT22;2661;50.786;12.728;2024-02-28T11:05:51;5.50;99.90
5276;DHT22;2661;50.786;12.728;2024-02-28T11:08:25;5.60;99.90
5276;DHT22;2661;50.786;12.728;2024-02-28T11:11:01;5.70;99.90
5276;DHT22;2661;50.786;12.728;2024-02-28T11:13:30;5.80;99.90
5276;DHT22;2661;50.786;12.728;2024-02-28T11:16:09;5.90;99.90
5276;DHT22;2661;50.786;12.728;2024-02-28T11:18:36;6.10;99.90
5276;DHT22;2661;50.786;12.728;2024-02-28T11:21:02;6.20;99.90
5276;DHT22;2661;50.786;12.728;2024-02-28T11:23:36;6.20;99.90
5276;DHT22;2661;50.786;12.728;2024-02-28T11:26:03;6.20;99.90
5276;DHT22;2661;50.786;12.728;2024-02-28T11:28:30;6.10;99.90
5276;DHT22;2661;50.786;12.728;2024-02-28T11:30:56;6.00;99.90
5276;DHT22;2661;50.786;12.728;2024-02-28T11:33:23;6.10;99.90
5276;DHT22;2661;50.786;12.728;2024-02-28T11:35:54;6.10;99.90
5276;DHT22;2661;50.786;12.728;2024-02-28T11:38:20;6.20;99.90
5276;DHT22;2661;50.786;12.728;2024-02-28T11:40:48;6.30;99.90
5276;DHT22;2661;50.786;12.728;2024-02-28T11:43:15;6.20;99.90
5276;DHT22;2661;50.786;12.728;2024-02-28T11:45:41;6.20;99.90
5276;DHT22;2661;50.786;12.728;2024-02-28T11:48:09;6.20;99.90
5276;DHT22;2661;50.786;12.728;2024-02-28T11:50:37;6.20;99.90
5276;DHT22;2661;50.786;12.728;2024-02-28T11:53:03;6.20;99.90
5276;DHT22;2661;50.786;12.728;2024-02-28T11:55:31;6.30;99.90
5276;DHT22;2661;50.786;12.728;2024-02-28T11:57:58;6.30;99.90
5276;DHT22;2661;50.786;12.728;2024-02-28T12:00:24;6.40;99.90
5276;DHT22;2661;50.786;12.728;2024-02-28T12:02:51;6.50;99.90
5276;DHT22;2661;50.786;12.728;2024-02-28T12:05:21;6.50;99.90
5276;DHT22;2661;50.786;12.728;2024-02-28T12:07:48;6.40;99.90
5276;DHT22;2661;50.786;12.728;2024-02-28T12:10:15;6.30;99.90
5276;DHT22;2661;50.786;12.728;2024-02-28T12:12:42;6.30;99.90
5276;DHT22;2661;50.786;12.728;2024-02-28T12:15:09;6.30;99.90
5276;DHT22;2661;50.786;12.728;2024-02-28T12:17:36;6.50;99.90
5276;DHT22;2661;50.786;12.728;2024-02-28T12:20:02;6.60;99.90
5276;DHT22;2661;50.786;12.728;2024-02-28T12:22:29;6.70;99.90
5276;DHT22;2661;50.786;12.728;2024-02-28T12:24:56;6.70;99.90
5276;DHT22;2661;50.786;12.728;2024-02-28T12:27:23;6.80;99.90
5276;DHT22;2661;50.786;12.728;2024-02-28T12:29:49;6.80;99.90
5276;DHT22;2661;50.786;12.728;2024-02-28T12:32:16;6.60;99.90
5276;DHT22;2661;50.786;12.728;2024-02-28T12:34:44;6.50;99.90
5276;DHT22;2661;50.786;12.728;2024-02-28T12:37:11;6.40;99.90
5276;DHT22;2661;50.786;12.728;2024-02-28T12:39:37;6.30;99.90
5276;DHT22;2661;50.786;12.728;2024-02-28T12:42:04;6.10;99.90
5276;DHT22;2661;50.786;12.728;2024-02-28T12:44:31;5.90;99.90
5276;DHT22;2661;50.786;12.728;2024-02-28T12:46:57;5.80;99.90
5276;DHT22;2661;50.786;12.728;2024-02-28T12:49:24;5.70;99.90
5276;DHT22;2661;50.786;12.728;2024-02-28T12:51:50;5.80;99.90
5276;DHT22;2661;50.786;12.728;2024-02-28T12:54:18;5.80;99.90
5276;DHT22;2661;50.786;12.728;2024-02-28T12:56:48;5.80;99.90
5276;DHT22;2661;50.786;12.728;2024-02-28T12:59:14;5.90;99.90
5276;DHT22;2661;50.786;12.728;2024-02-28T13:01:42;5.90;99.90
5276;DHT22;2661;50.786;12.728;2024-02-28T13:04:09;6.00;99.90
5276;DHT22;2661;50.786;12.728;2024-02-28T13:06:36;6.00;99.90
5276;DHT22;2661;50.786;12.728;2024-02-28T13:09:03;6.10;99.90
5276;DHT22;2661;50.786;12.728;2024-02-28T13:11:29;6.20;99.90
5276;DHT22;2661;50.786;12.728;2024-02-28T13:13:56;6.20;99.90
5276;DHT22;2661;50.786;12.728;2024-02-28T13:16:23;6.20;99.90
5276;DHT22;2661;50.786;12.728;2024-02-28T13:18:50;6.30;99.90
5276;DHT22;2661;50.786;12.728;2024-02-28T13:21:16;6.40;99.90
5276;DHT22;2661;50.786;12.728;2024-02-28T13:23:43;6.40;99.90
5276;DHT22;2661;50.786;12.728;2024-02-28T13:26:09;6.50;99.90
5276;DHT22;2661;50.786;12.728;2024-02-28T13:28:44;6.50;99.90
5276;DHT22;2661;50.786;12.728;2024-02-28T13:31:14;6.30;99.90
5276;DHT22;2661;50.786;12.728;2024-02-28T13:33:41;6.30;99.90
5276;DHT22;2661;50.786;12.728;2024-02-28T13:36:08;6.40;99.90
5276;DHT22;2661;50.786;12.728;2024-02-28T13:38:35;6.40;99.90
5276;DHT22;2661;50.786;12.728;2024-02-28T13:41:02;6.40;99.90
5276;DHT22;2661;50.786;12.728;2024-02-28T13:43:30;6.40;99.90
5276;DHT22;2661;50.786;12.728;2024-02-28T13:45:56;6.50;99.90
5276;DHT22;2661;50.786;12.728;2024-02-28T13:48:27;6.60;99.90
5276;DHT22;2661;50.786;12.728;2024-02-28T13:50:55;6.70;99.90
5276;DHT22;2661;50.786;12.728;2024-02-28T13:53:22;6.70;99.90
5276;DHT22;2661;50.786;12.728;2024-02-28T13:55:48;6.70;99.90
5276;DHT22;2661;50.786;12.728;2024-02-28T13:58:15;6.70;99.90
5276;DHT22;2661;50.786;12.728;2024-02-28T14:00:45;6.70;99.90
5276;DHT22;2661;50.786;12.728;2024-02-28T14:03:15;6.70;99.90
5276;DHT22;2661;50.786;12.728;2024-02-28T14:05:41;6.80;99.90
5276;DHT22;2661;50.786;12.728;2024-02-28T14:08:08;6.80;99.90
5276;DHT22;2661;50.786;12.728;2024-02-28T14:10:36;6.80;99.90
5276;DHT22;2661;50.786;12.728;2024-02-28T14:13:03;6.80;99.90
5276;DHT22;2661;50.786;12.728;2024-02-28T14:15:30;6.80;99.90
5276;DHT22;2661;50.786;12.728;2024-02-28T14:17:57;6.80;99.90
5276;DHT22;2661;50.786;12.728;2024-02-28T14:20:23;6.70;99.90
5276;DHT22;2661;50.786;12.728;2024-02-28T14:22:51;6.80;99.90
5276;DHT22;2661;50.786;12.728;2024-02-28T14:25:17;6.80;99.90
5276;DHT22;2661;50.786;12.728;2024-02-28T14:27:45;6.80;99.90
5276;DHT22;2661;50.786;12.728;2024-02-28T14:30:12;6.70;99.90
5276;DHT22;2661;50.786;12.728;2024-02-28T14:32:40;6.70;99.90
5276;DHT22;2661;50.786;12.728;2024-02-28T14:35:07;6.80;99.90
5276;DHT22;2661;50.786;12.728;2024-02-28T14:37:34;6.70;99.90
5276;DHT22;2661;50.786;12.728;2024-02-28T14:40:01;6.70;99.90
5276;DHT22;2661;50.786;12.728;2024-02-28T14:42:30;6.70;99.90
5276;DHT22;2661;50.786;12.728;2024-02-28T14:44:57;6.60;99.90
5276;DHT22;2661;50.786;12.728;2024-02-28T14:47:23;6.60;99.90
5276;DHT22;2661;50.786;12.728;2024-02-28T14:49:50;6.60;99.90
5276;DHT22;2661;50.786;12.728;2024-02-28T14:52:17;6.70;99.90
5276;DHT22;2661;50.786;12.728;2024-02-28T14:54:44;6.70;99.90
5276;DHT22;2661;50.786;12.728;2024-02-28T14:57:12;6.70;99.90
5276;DHT22;2661;50.786;12.728;2024-02-28T14:59:40;6.70;99.90
5276;DHT22;2661;50.786;12.728;2024-02-28T15:02:07;6.70;99.90
5276;DHT22;2661;50.786;12.728;2024-02-28T15:04:34;6.70;99.90
5276;DHT22;2661;50.786;12.728;2024-02-28T15:07:01;6.70;99.90
5276;DHT22;2661;50.786;12.728;2024-02-28T15:09:29;6.70;99.90
5276;DHT22;2661;50.786;12.728;2024-02-28T15:11:55;6.80;99.90
5276;DHT22;2661;50.786;12.728;2024-02-28T15:14:23;6.80;99.90
5276;DHT22;2661;50.786;12.728;2024-02-28T15:16:49;6.70;99.90
5276;DHT22;2661;50.786;12.728;2024-02-28T15:19:17;6.70;99.90
5276;DHT22;2661;50.786;12.728;2024-02-28T15:21:43;6.70;99.90
5276;DHT22;2661;50.786;12.728;2024-02-28T15:24:10;6.70;99.90
5276;DHT22;2661;50.786;12.728;2024-02-28T15:26:37;6.70;99.90
5276;DHT22;2661;50.786;12.728;2024-02-28T15:29:12;6.70;99.90
5276;DHT22;2661;50.786;12.728;2024-02-28T15:31:39;6.60;99.90
5276;DHT22;2661;50.786;12.728;2024-02-28T15:34:05;6.60;99.90
5276;DHT22;2661;50.786;12.728;2024-02-28T15:36:32;6.60;99.90
5276;DHT22;2661;50.786;12.728;2024-02-28T15:38:58;6.60;99.90
5276;DHT22;2661;50.786;12.728;2024-02-28T15:41:25;6.70;99.90
5276;DHT22;2661;50.786;12.728;2024-02-28T15:43:52;6.70;99.90
5276;DHT22;2661;50.786;12.728;2024-02-28T15:46:18;6.60;99.90
5276;DHT22;2661;50.786;12.728;2024-02-28T15:48:45;6.60;99.90
5276;DHT22;2661;50.786;12.728;2024-02-28T15:51:12;6.60;99.90
5276;DHT22;2661;50.786;12.728;2024-02-28T15:53:39;6.60;99.90
5276;DHT22;2661;50.786;12.728;2024-02-28T15:56:05;6.50;99.90
5276;DHT22;2661;50.786;12.728;2024-02-28T15:58:32;6.50;99.90
5276;DHT22;2661;50.786;12.728;2024-02-28T16:00:59;6.50;99.90
5276;DHT22;2661;50.786;12.728;2024-02-28T16:03:26;6.40;99.90
5276;DHT22;2661;50.786;12.728;2024-02-28T16:05:53;6.40;99.90
5276;DHT22;2661;50.786;12.728;2024-02-28T16:08:20;6.40;99.90
5276;DHT22;2661;50.786;12.728;2024-02-28T16:10:47;6.30;99.90